Donna Nook, United Kingdom
Current Conditions -  °F | °C
As of 11:50 AM on Thursday 30 Oct 2014 (Local Time) from EGXS Reporting Station
Haze Haze  
Wind Chill: 16°   Ceiling: Unl
Heat Index: 16°   Visibility: 4mi
Dew Point: 14°   Wind: 10mph
Humidity: 88%   Direction: 190°S
Pressure: 30"   Gusts: NA
Location:  53.47°N, 0.15°E
Report Text: EGXS 301150Z 19009KT 6000 HZ VV/// 16/14 Q1016 RED
Loading
Personal Weather Stations






























Interactive Weather Map
Tropical Storm Tracking
New forecast layout! Learn more

10-Day Weather Forecast

Advertisements
Track Severe Weather on mobile